Edam, Netherlands
Current Conditions -  °F | °C
As of 5:25 PM on Thursday 30 Oct 2014 (Local Time) from EHAM Reporting Station
Haze Haze  
Wind Chill: 59°   Ceiling: Unl
Heat Index: 59°   Visibility: 3mi
Dew Point: 57°   Wind: 8mph
Humidity: 94%   Direction: 160°SSE
Pressure: 30.12"   Gusts: NA
Location:  52.51°N, 5.05°E
Report Text: EHAM 301625Z 16007KT 5000 BR NSC 15/14 Q1020 BECMG 4500
Loading
Personal Weather Stations






























Interactive Weather Map
Tropical Storm Tracking
New forecast layout! Learn more

10-Day Weather Forecast

Advertisements
Track Severe Weather on mobile